Hardwood, Louisiana
Current Conditions -  °F | °C
As of 1:15 AM on Sunday 23 Nov 2014 (Local Time) from KHZR Reporting Station
Overcast Overcast  
Wind Chill: 18°   Ceiling: 800
Heat Index: 18°   Visibility: 10mi
Dew Point: 17°   Wind: 13mph
Humidity: 93%   Direction: 120°ESE
Pressure: 29.81"   Gusts: 21mph
Location:  30.8804°N, 91.4243°W
Report Text: KHZR 230715Z AUTO 12011G18KT 10SM OVC008 18/17 A2981 RMK AO2 LTG DSNT SW T01780167
Loading
Personal Weather Stations






























Interactive Weather Map New forecast layout! Learn more

10-Day Weather Forecast

Advertisements
Track Severe Weather on mobile